Impacts TAF Board
For situational awareness. Not to be used for flight planning purposes.
IDs:

KDTW - Detroit Metro/Wayne, MI, US

Issued at 0246 UTC 03 Jul 2022
Updated at 0510 UTC 03 Jul 2022
Potential Impact None Slight Moderate High
Time0453Z 03/06Z 03/07Z 03/08Z 03/09Z 03/10Z 03/11Z 03/12Z 03/13Z 03/14Z 03/15Z 03/16Z 03/17Z 03/18Z>>
Type OBS PRVL PRVL PRVL PRVL PRVL PRVL PRVL PRVL PRVL PRVL PRVL PRVL PRVL
VIS 10 >6 >6 >6 >6 >6 >6 >6 >6 >6 >6 >6 >6 >6
CIG -- -- -- -- 80 80 80 80 80 80 80 -- -- --
Cover SCT SCT SCT SCT BKN BKN BKN BKN BKN BKN BKN SCT SCT SCT
FltCat VFR VFR VFR VFR VFR VFR VFR VFR VFR VFR VFR VFR VFR VFR
WX -- -- -- -- -- -- -- -- -- -- -- -- -- --
WDir 360 60 60 60 VRB VRB VRB VRB VRB VRB VRB 190 190 190
WSpd 5 4 4 4 3 3 3 3 3 3 3 7 7 7
WGst -- -- -- -- -- -- -- -- -- -- -- -- -- --
WSHgt -- -- -- -- -- -- -- -- -- -- -- -- -- --
WSDir -- -- -- -- -- -- -- -- -- -- -- -- -- --
WSSpd -- -- -- -- -- -- -- -- -- -- -- -- -- --
Raw TAF
KDTW 030246Z 0303/0406 32004KT P6SM BKN250
  FM030600 06004KT P6SM SCT080
  FM030900 VRB03KT P6SM BKN080
  FM031600 19007KT P6SM SCT100


Raw METAR
KDTW 030453Z 36005KT 10SM SCT250 21/11 A3006 RMK AO2 SLP176 T02110106 402940139
KDTW 030353Z 33004KT 10SM FEW200 BKN250 22/11 A3005 RMK AO2 SLP172 T02170106
KDTW 030253Z 32004KT 10SM FEW180 BKN250 23/10 A3005 RMK AO2 SLP172 T02330100 53016

METAR Board
Radar Display
Forecast Discussion
For situational awareness. Not to be used for flight planning purposes.